sensor_id;sensor_type;location;lat;lon;timestamp;temperature;humidity
52159;DHT22;38145;53.182;6.284;2022-11-15T00:00:34;7.70;99.90
52159;DHT22;38145;53.182;6.284;2022-11-15T00:03:00;7.80;99.90
52159;DHT22;38145;53.182;6.284;2022-11-15T00:05:26;7.80;93.10
52159;DHT22;38145;53.182;6.284;2022-11-15T00:07:52;7.80;67.20
52159;DHT22;38145;53.182;6.284;2022-11-15T00:10:18;7.70;38.70
52159;DHT22;38145;53.182;6.284;2022-11-15T00:12:44;7.50;23.60
52159;DHT22;38145;53.182;6.284;2022-11-15T00:15:10;7.50;13.00
52159;DHT22;38145;53.182;6.284;2022-11-15T00:17:36;7.60;1.00
52159;DHT22;38145;53.182;6.284;2022-11-15T00:20:02;7.50;1.00
52159;DHT22;38145;53.182;6.284;2022-11-15T00:22:32;7.40;1.00
52159;DHT22;38145;53.182;6.284;2022-11-15T00:24:58;7.50;1.00
52159;DHT22;38145;53.182;6.284;2022-11-15T00:27:24;7.40;1.00
52159;DHT22;38145;53.182;6.284;2022-11-15T00:29:50;7.40;5.90
52159;DHT22;38145;53.182;6.284;2022-11-15T00:32:16;7.50;26.10
52159;DHT22;38145;53.182;6.284;2022-11-15T00:34:42;7.50;26.40
52159;DHT22;38145;53.182;6.284;2022-11-15T00:37:08;7.50;48.10
52159;DHT22;38145;53.182;6.284;2022-11-15T00:39:34;7.50;47.30
52159;DHT22;38145;53.182;6.284;2022-11-15T00:42:02;7.50;60.70
52159;DHT22;38145;53.182;6.284;2022-11-15T00:44:28;7.50;72.70
52159;DHT22;38145;53.182;6.284;2022-11-15T00:46:54;7.50;65.50
52159;DHT22;38145;53.182;6.284;2022-11-15T00:49:20;7.50;73.60
52159;DHT22;38145;53.182;6.284;2022-11-15T00:51:46;7.40;30.00
52159;DHT22;38145;53.182;6.284;2022-11-15T00:54:12;7.50;9.80
52159;DHT22;38145;53.182;6.284;2022-11-15T00:56:38;7.50;1.00
52159;DHT22;38145;53.182;6.284;2022-11-15T00:59:03;7.50;1.00
52159;DHT22;38145;53.182;6.284;2022-11-15T01:01:29;7.50;1.00
52159;DHT22;38145;53.182;6.284;2022-11-15T01:03:55;7.50;1.00
52159;DHT22;38145;53.182;6.284;2022-11-15T01:06:21;7.60;1.00
52159;DHT22;38145;53.182;6.284;2022-11-15T01:08:48;7.50;1.00
52159;DHT22;38145;53.182;6.284;2022-11-15T01:11:13;7.60;1.00
52159;DHT22;38145;53.182;6.284;2022-11-15T01:13:39;7.50;1.00
52159;DHT22;38145;53.182;6.284;2022-11-15T01:16:08;7.50;1.00
52159;DHT22;38145;53.182;6.284;2022-11-15T01:18:34;7.50;1.00
52159;DHT22;38145;53.182;6.284;2022-11-15T01:21:00;7.60;99.90
52159;DHT22;38145;53.182;6.284;2022-11-15T01:23:29;7.50;1.00
52159;DHT22;38145;53.182;6.284;2022-11-15T01:25:59;7.50;1.00
52159;DHT22;38145;53.182;6.284;2022-11-15T01:28:29;7.50;1.00
52159;DHT22;38145;53.182;6.284;2022-11-15T01:30:57;7.50;1.00
52159;DHT22;38145;53.182;6.284;2022-11-15T01:33:23;7.60;1.00
52159;DHT22;38145;53.182;6.284;2022-11-15T01:35:48;7.50;1.00
52159;DHT22;38145;53.182;6.284;2022-11-15T01:38:14;7.50;99.90
52159;DHT22;38145;53.182;6.284;2022-11-15T01:40:42;7.50;99.90
52159;DHT22;38145;53.182;6.284;2022-11-15T01:43:22;7.50;99.90
52159;DHT22;38145;53.182;6.284;2022-11-15T01:45:50;7.50;99.90
52159;DHT22;38145;53.182;6.284;2022-11-15T01:48:18;7.40;99.90
52159;DHT22;38145;53.182;6.284;2022-11-15T01:50:44;7.30;99.90
52159;DHT22;38145;53.182;6.284;2022-11-15T01:53:10;7.40;99.90
52159;DHT22;38145;53.182;6.284;2022-11-15T01:55:37;7.40;1.00
52159;DHT22;38145;53.182;6.284;2022-11-15T01:58:03;7.30;1.00
52159;DHT22;38145;53.182;6.284;2022-11-15T02:00:31;7.30;1.00
52159;DHT22;38145;53.182;6.284;2022-11-15T02:02:57;7.40;1.00
52159;DHT22;38145;53.182;6.284;2022-11-15T02:05:23;7.30;1.00
52159;DHT22;38145;53.182;6.284;2022-11-15T02:07:49;7.30;1.00
52159;DHT22;38145;53.182;6.284;2022-11-15T02:10:18;7.20;1.00
52159;DHT22;38145;53.182;6.284;2022-11-15T02:12:44;7.20;1.00
52159;DHT22;38145;53.182;6.284;2022-11-15T02:15:11;7.20;1.00
52159;DHT22;38145;53.182;6.284;2022-11-15T02:17:42;7.10;1.00
52159;DHT22;38145;53.182;6.284;2022-11-15T02:20:24;7.10;1.00
52159;DHT22;38145;53.182;6.284;2022-11-15T02:30:32;7.00;2.20
52159;DHT22;38145;53.182;6.284;2022-11-15T02:33:10;7.00;39.20
52159;DHT22;38145;53.182;6.284;2022-11-15T02:38:07;7.10;48.60
52159;DHT22;38145;53.182;6.284;2022-11-15T02:40:42;7.10;75.70
52159;DHT22;38145;53.182;6.284;2022-11-15T02:43:12;7.00;91.80
52159;DHT22;38145;53.182;6.284;2022-11-15T02:46:08;7.00;96.90
52159;DHT22;38145;53.182;6.284;2022-11-15T02:48:35;7.00;99.90
52159;DHT22;38145;53.182;6.284;2022-11-15T02:51:02;7.10;99.90
52159;DHT22;38145;53.182;6.284;2022-11-15T02:53:28;7.10;99.90
52159;DHT22;38145;53.182;6.284;2022-11-15T02:55:55;6.90;99.90
52159;DHT22;38145;53.182;6.284;2022-11-15T02:58:30;7.00;99.90
52159;DHT22;38145;53.182;6.284;2022-11-15T03:00:59;6.90;99.90
52159;DHT22;38145;53.182;6.284;2022-11-15T03:06:04;7.10;99.90
52159;DHT22;38145;53.182;6.284;2022-11-15T03:08:49;6.90;99.90
52159;DHT22;38145;53.182;6.284;2022-11-15T03:11:19;7.00;99.90
52159;DHT22;38145;53.182;6.284;2022-11-15T03:13:50;7.10;99.90
52159;DHT22;38145;53.182;6.284;2022-11-15T03:16:27;7.00;99.90
52159;DHT22;38145;53.182;6.284;2022-11-15T03:18:55;7.10;99.90
52159;DHT22;38145;53.182;6.284;2022-11-15T03:21:22;6.90;99.90
52159;DHT22;38145;53.182;6.284;2022-11-15T03:23:49;7.00;99.90
52159;DHT22;38145;53.182;6.284;2022-11-15T03:26:17;7.00;99.90
52159;DHT22;38145;53.182;6.284;2022-11-15T03:28:48;7.10;99.90
52159;DHT22;38145;53.182;6.284;2022-11-15T03:31:15;7.00;99.90
52159;DHT22;38145;53.182;6.284;2022-11-15T03:34:01;7.10;99.90
52159;DHT22;38145;53.182;6.284;2022-11-15T03:36:29;7.10;99.90
52159;DHT22;38145;53.182;6.284;2022-11-15T03:38:58;7.20;99.90
52159;DHT22;38145;53.182;6.284;2022-11-15T03:41:35;7.20;99.90
52159;DHT22;38145;53.182;6.284;2022-11-15T03:44:10;7.10;99.90
52159;DHT22;38145;53.182;6.284;2022-11-15T03:46:39;7.30;99.90
52159;DHT22;38145;53.182;6.284;2022-11-15T03:49:07;7.30;99.90
52159;DHT22;38145;53.182;6.284;2022-11-15T03:51:35;7.20;99.90
52159;DHT22;38145;53.182;6.284;2022-11-15T03:54:02;7.40;99.90
52159;DHT22;38145;53.182;6.284;2022-11-15T03:56:28;7.20;99.90
52159;DHT22;38145;53.182;6.284;2022-11-15T03:58:54;7.30;99.90
52159;DHT22;38145;53.182;6.284;2022-11-15T04:01:20;7.40;99.90
52159;DHT22;38145;53.182;6.284;2022-11-15T04:03:46;7.20;99.90
52159;DHT22;38145;53.182;6.284;2022-11-15T04:06:13;7.20;99.90
52159;DHT22;38145;53.182;6.284;2022-11-15T04:08:38;7.50;99.90
52159;DHT22;38145;53.182;6.284;2022-11-15T04:11:04;7.40;99.90
52159;DHT22;38145;53.182;6.284;2022-11-15T04:13:30;7.40;99.90
52159;DHT22;38145;53.182;6.284;2022-11-15T04:15:57;7.40;99.90
52159;DHT22;38145;53.182;6.284;2022-11-15T04:18:22;7.50;99.90
52159;DHT22;38145;53.182;6.284;2022-11-15T04:20:49;7.50;99.90
52159;DHT22;38145;53.182;6.284;2022-11-15T04:23:34;7.50;99.90
52159;DHT22;38145;53.182;6.284;2022-11-15T04:26:19;7.50;99.90
52159;DHT22;38145;53.182;6.284;2022-11-15T04:28:46;7.60;99.90
52159;DHT22;38145;53.182;6.284;2022-11-15T04:31:30;7.40;99.90
52159;DHT22;38145;53.182;6.284;2022-11-15T04:33:56;7.40;99.90
52159;DHT22;38145;53.182;6.284;2022-11-15T04:36:22;7.50;99.90
52159;DHT22;38145;53.182;6.284;2022-11-15T04:39:07;7.50;99.90
52159;DHT22;38145;53.182;6.284;2022-11-15T04:41:33;7.70;99.90
52159;DHT22;38145;53.182;6.284;2022-11-15T04:43:59;7.70;99.90
52159;DHT22;38145;53.182;6.284;2022-11-15T04:46:25;7.40;99.90
52159;DHT22;38145;53.182;6.284;2022-11-15T04:48:53;7.70;99.90
52159;DHT22;38145;53.182;6.284;2022-11-15T04:51:19;7.60;99.90
52159;DHT22;38145;53.182;6.284;2022-11-15T04:53:45;7.50;99.90
52159;DHT22;38145;53.182;6.284;2022-11-15T04:56:11;7.50;99.90
52159;DHT22;38145;53.182;6.284;2022-11-15T04:58:37;7.70;99.90
52159;DHT22;38145;53.182;6.284;2022-11-15T05:01:09;7.80;99.90
52159;DHT22;38145;53.182;6.284;2022-11-15T05:03:35;7.60;99.90
52159;DHT22;38145;53.182;6.284;2022-11-15T05:06:19;7.60;99.90
52159;DHT22;38145;53.182;6.284;2022-11-15T05:08:45;7.60;99.90
52159;DHT22;38145;53.182;6.284;2022-11-15T05:11:12;7.70;99.90
52159;DHT22;38145;53.182;6.284;2022-11-15T05:13:38;7.90;99.90
52159;DHT22;38145;53.182;6.284;2022-11-15T05:16:03;7.90;99.90
52159;DHT22;38145;53.182;6.284;2022-11-15T05:18:29;7.70;99.90
52159;DHT22;38145;53.182;6.284;2022-11-15T05:20:55;7.90;99.90
52159;DHT22;38145;53.182;6.284;2022-11-15T05:23:21;8.00;99.90
52159;DHT22;38145;53.182;6.284;2022-11-15T05:25:48;8.00;99.90
52159;DHT22;38145;53.182;6.284;2022-11-15T05:28:15;8.00;99.90
52159;DHT22;38145;53.182;6.284;2022-11-15T05:30:41;7.80;99.90
52159;DHT22;38145;53.182;6.284;2022-11-15T05:33:07;7.90;99.90
52159;DHT22;38145;53.182;6.284;2022-11-15T05:35:37;7.80;99.90
52159;DHT22;38145;53.182;6.284;2022-11-15T05:38:10;8.00;99.90
52159;DHT22;38145;53.182;6.284;2022-11-15T05:40:37;8.10;99.90
52159;DHT22;38145;53.182;6.284;2022-11-15T05:43:03;8.20;99.90
52159;DHT22;38145;53.182;6.284;2022-11-15T05:45:31;8.20;99.90
52159;DHT22;38145;53.182;6.284;2022-11-15T05:47:58;7.90;99.90
52159;DHT22;38145;53.182;6.284;2022-11-15T05:50:26;8.30;99.90
52159;DHT22;38145;53.182;6.284;2022-11-15T05:52:53;8.00;99.90
52159;DHT22;38145;53.182;6.284;2022-11-15T05:55:20;8.40;99.90
52159;DHT22;38145;53.182;6.284;2022-11-15T05:57:47;8.40;99.90
52159;DHT22;38145;53.182;6.284;2022-11-15T06:00:14;8.30;99.90
52159;DHT22;38145;53.182;6.284;2022-11-15T06:02:40;8.50;99.90
52159;DHT22;38145;53.182;6.284;2022-11-15T06:05:06;8.20;99.90
52159;DHT22;38145;53.182;6.284;2022-11-15T06:07:32;8.50;99.90
52159;DHT22;38145;53.182;6.284;2022-11-15T06:09:59;8.60;99.90
52159;DHT22;38145;53.182;6.284;2022-11-15T06:12:25;8.30;99.90
52159;DHT22;38145;53.182;6.284;2022-11-15T06:14:51;8.70;99.90
52159;DHT22;38145;53.182;6.284;2022-11-15T06:17:17;8.30;99.90
52159;DHT22;38145;53.182;6.284;2022-11-15T06:19:43;8.40;99.90
52159;DHT22;38145;53.182;6.284;2022-11-15T06:22:09;8.80;99.90
52159;DHT22;38145;53.182;6.284;2022-11-15T06:24:35;8.80;99.90
52159;DHT22;38145;53.182;6.284;2022-11-15T06:27:01;8.70;99.90
52159;DHT22;38145;53.182;6.284;2022-11-15T06:29:27;8.60;99.90
52159;DHT22;38145;53.182;6.284;2022-11-15T06:31:53;8.90;99.90
52159;DHT22;38145;53.182;6.284;2022-11-15T06:34:30;8.60;99.90
52159;DHT22;38145;53.182;6.284;2022-11-15T06:36:57;9.00;99.90
52159;DHT22;38145;53.182;6.284;2022-11-15T06:39:23;8.80;99.90
52159;DHT22;38145;53.182;6.284;2022-11-15T06:41:49;8.60;99.90
52159;DHT22;38145;53.182;6.284;2022-11-15T06:44:15;9.10;99.90
52159;DHT22;38145;53.182;6.284;2022-11-15T06:46:42;9.10;99.90
52159;DHT22;38145;53.182;6.284;2022-11-15T06:49:08;8.70;99.90
52159;DHT22;38145;53.182;6.284;2022-11-15T06:51:34;9.00;99.90
52159;DHT22;38145;53.182;6.284;2022-11-15T06:54:01;9.20;99.90
52159;DHT22;38145;53.182;6.284;2022-11-15T06:56:26;9.20;99.90
52159;DHT22;38145;53.182;6.284;2022-11-15T06:58:53;9.30;99.90
52159;DHT22;38145;53.182;6.284;2022-11-15T07:01:21;8.80;99.90
52159;DHT22;38145;53.182;6.284;2022-11-15T07:03:47;8.90;99.90
52159;DHT22;38145;53.182;6.284;2022-11-15T07:06:14;9.40;99.90
52159;DHT22;38145;53.182;6.284;2022-11-15T07:08:40;9.00;99.90
52159;DHT22;38145;53.182;6.284;2022-11-15T07:11:07;9.00;99.90
52159;DHT22;38145;53.182;6.284;2022-11-15T07:13:34;9.00;99.90
52159;DHT22;38145;53.182;6.284;2022-11-15T07:16:02;9.10;99.90
52159;DHT22;38145;53.182;6.284;2022-11-15T07:18:28;9.30;99.90
52159;DHT22;38145;53.182;6.284;2022-11-15T07:20:55;9.20;99.90
52159;DHT22;38145;53.182;6.284;2022-11-15T07:23:21;9.50;99.90
52159;DHT22;38145;53.182;6.284;2022-11-15T07:25:47;9.40;99.90
52159;DHT22;38145;53.182;6.284;2022-11-15T07:28:13;9.30;99.90
52159;DHT22;38145;53.182;6.284;2022-11-15T07:30:39;9.20;99.90
52159;DHT22;38145;53.182;6.284;2022-11-15T07:33:05;9.20;99.90
52159;DHT22;38145;53.182;6.284;2022-11-15T07:35:31;9.60;99.90
52159;DHT22;38145;53.182;6.284;2022-11-15T07:37:58;9.50;99.90
52159;DHT22;38145;53.182;6.284;2022-11-15T07:40:25;9.40;99.90
52159;DHT22;38145;53.182;6.284;2022-11-15T07:42:51;9.70;99.90
52159;DHT22;38145;53.182;6.284;2022-11-15T07:45:19;9.40;99.90
52159;DHT22;38145;53.182;6.284;2022-11-15T07:47:46;9.40;99.90
52159;DHT22;38145;53.182;6.284;2022-11-15T07:50:12;9.80;99.90
52159;DHT22;38145;53.182;6.284;2022-11-15T07:52:38;9.40;99.90
52159;DHT22;38145;53.182;6.284;2022-11-15T07:55:04;9.70;99.90
52159;DHT22;38145;53.182;6.284;2022-11-15T07:57:30;9.80;99.90
52159;DHT22;38145;53.182;6.284;2022-11-15T07:59:56;9.90;99.90
52159;DHT22;38145;53.182;6.284;2022-11-15T08:02:22;10.00;99.90
52159;DHT22;38145;53.182;6.284;2022-11-15T08:04:48;9.50;99.90
52159;DHT22;38145;53.182;6.284;2022-11-15T08:07:14;10.00;99.90
52159;DHT22;38145;53.182;6.284;2022-11-15T08:09:40;10.00;99.90
52159;DHT22;38145;53.182;6.284;2022-11-15T08:12:06;9.60;99.90
52159;DHT22;38145;53.182;6.284;2022-11-15T08:14:32;9.90;99.90
52159;DHT22;38145;53.182;6.284;2022-11-15T08:16:58;9.70;99.90
52159;DHT22;38145;53.182;6.284;2022-11-15T08:19:24;9.80;99.90
52159;DHT22;38145;53.182;6.284;2022-11-15T08:21:50;9.70;99.90
52159;DHT22;38145;53.182;6.284;2022-11-15T08:24:17;10.00;99.90
52159;DHT22;38145;53.182;6.284;2022-11-15T08:26:43;10.30;99.90
52159;DHT22;38145;53.182;6.284;2022-11-15T08:29:09;9.80;99.90
52159;DHT22;38145;53.182;6.284;2022-11-15T08:31:35;9.90;99.90
52159;DHT22;38145;53.182;6.284;2022-11-15T08:34:02;10.30;99.90
52159;DHT22;38145;53.182;6.284;2022-11-15T08:36:28;10.40;99.90
52159;DHT22;38145;53.182;6.284;2022-11-15T08:38:54;10.00;99.90
52159;DHT22;38145;53.182;6.284;2022-11-15T08:41:25;10.00;99.90
52159;DHT22;38145;53.182;6.284;2022-11-15T08:43:52;10.40;99.90
52159;DHT22;38145;53.182;6.284;2022-11-15T08:46:18;10.50;99.90
52159;DHT22;38145;53.182;6.284;2022-11-15T08:48:45;10.10;99.90
52159;DHT22;38145;53.182;6.284;2022-11-15T08:51:11;10.50;99.90
52159;DHT22;38145;53.182;6.284;2022-11-15T08:53:37;10.20;99.90
52159;DHT22;38145;53.182;6.284;2022-11-15T08:56:08;10.30;99.90
52159;DHT22;38145;53.182;6.284;2022-11-15T08:58:35;10.40;99.90
52159;DHT22;38145;53.182;6.284;2022-11-15T09:01:01;10.20;99.90
52159;DHT22;38145;53.182;6.284;2022-11-15T09:03:27;10.70;99.90
52159;DHT22;38145;53.182;6.284;2022-11-15T09:05:55;10.60;99.90
52159;DHT22;38145;53.182;6.284;2022-11-15T09:08:21;10.70;99.90
52159;DHT22;38145;53.182;6.284;2022-11-15T09:10:47;10.30;99.90
52159;DHT22;38145;53.182;6.284;2022-11-15T09:13:13;10.80;99.90
52159;DHT22;38145;53.182;6.284;2022-11-15T09:15:39;10.60;99.90
52159;DHT22;38145;53.182;6.284;2022-11-15T09:18:05;10.60;99.90
52159;DHT22;38145;53.182;6.284;2022-11-15T09:20:31;10.40;99.90
52159;DHT22;38145;53.182;6.284;2022-11-15T09:22:59;10.40;99.90
52159;DHT22;38145;53.182;6.284;2022-11-15T09:25:25;10.80;99.90
52159;DHT22;38145;53.182;6.284;2022-11-15T09:27:51;10.40;99.90
52159;DHT22;38145;53.182;6.284;2022-11-15T09:30:17;10.50;99.90
52159;DHT22;38145;53.182;6.284;2022-11-15T09:32:43;10.40;99.90
52159;DHT22;38145;53.182;6.284;2022-11-15T09:35:09;10.40;99.90
52159;DHT22;38145;53.182;6.284;2022-11-15T09:37:35;10.50;99.90
52159;DHT22;38145;53.182;6.284;2022-11-15T09:40:01;10.50;99.90
52159;DHT22;38145;53.182;6.284;2022-11-15T09:44:56;11.00;99.90
52159;DHT22;38145;53.182;6.284;2022-11-15T09:50:11;11.00;99.90
52159;DHT22;38145;53.182;6.284;2022-11-15T09:52:39;11.00;99.90
52159;DHT22;38145;53.182;6.284;2022-11-15T09:55:08;10.80;99.90
52159;DHT22;38145;53.182;6.284;2022-11-15T09:57:40;10.70;99.90
52159;DHT22;38145;53.182;6.284;2022-11-15T10:00:20;11.20;99.90
52159;DHT22;38145;53.182;6.284;2022-11-15T10:05:22;10.90;99.90
52159;DHT22;38145;53.182;6.284;2022-11-15T10:07:57;10.80;99.90
52159;DHT22;38145;53.182;6.284;2022-11-15T10:10:31;11.30;99.90
52159;DHT22;38145;53.182;6.284;2022-11-15T10:12:58;11.30;99.90
52159;DHT22;38145;53.182;6.284;2022-11-15T10:15:24;11.30;99.90
52159;DHT22;38145;53.182;6.284;2022-11-15T10:17:59;11.20;99.90
52159;DHT22;38145;53.182;6.284;2022-11-15T10:20:27;11.30;99.90
52159;DHT22;38145;53.182;6.284;2022-11-15T10:22:56;11.30;99.90
52159;DHT22;38145;53.182;6.284;2022-11-15T10:25:27;11.20;99.90
52159;DHT22;38145;53.182;6.284;2022-11-15T10:27:55;11.40;99.90
52159;DHT22;38145;53.182;6.284;2022-11-15T10:30:21;11.10;99.90
52159;DHT22;38145;53.182;6.284;2022-11-15T10:32:48;11.30;99.90
52159;DHT22;38145;53.182;6.284;2022-11-15T10:35:17;11.30;99.90
52159;DHT22;38145;53.182;6.284;2022-11-15T10:37:43;11.40;99.90
52159;DHT22;38145;53.182;6.284;2022-11-15T10:40:17;11.30;99.90
52159;DHT22;38145;53.182;6.284;2022-11-15T10:42:44;11.20;99.90
52159;DHT22;38145;53.182;6.284;2022-11-15T10:45:29;11.30;99.90
52159;DHT22;38145;53.182;6.284;2022-11-15T10:50:37;11.30;99.90
52159;DHT22;38145;53.182;6.284;2022-11-15T10:53:03;11.50;99.90
52159;DHT22;38145;53.182;6.284;2022-11-15T10:55:30;11.40;99.90
52159;DHT22;38145;53.182;6.284;2022-11-15T10:58:01;11.20;99.90
52159;DHT22;38145;53.182;6.284;2022-11-15T11:00:30;11.50;99.90
52159;DHT22;38145;53.182;6.284;2022-11-15T11:02:59;11.40;99.90
52159;DHT22;38145;53.182;6.284;2022-11-15T11:07:58;11.60;99.90
52159;DHT22;38145;53.182;6.284;2022-11-15T11:10:25;11.30;99.90
52159;DHT22;38145;53.182;6.284;2022-11-15T11:12:51;11.50;99.90
52159;DHT22;38145;53.182;6.284;2022-11-15T11:15:17;11.70;99.90
52159;DHT22;38145;53.182;6.284;2022-11-15T11:23:00;12.00;99.90
52159;DHT22;38145;53.182;6.284;2022-11-15T11:25:34;11.90;99.90
52159;DHT22;38145;53.182;6.284;2022-11-15T11:28:05;11.60;99.90
52159;DHT22;38145;53.182;6.284;2022-11-15T11:30:47;11.90;99.90
52159;DHT22;38145;53.182;6.284;2022-11-15T11:33:16;11.60;99.90
52159;DHT22;38145;53.182;6.284;2022-11-15T11:38:29;11.80;99.90
52159;DHT22;38145;53.182;6.284;2022-11-15T11:41:14;11.50;99.90
52159;DHT22;38145;53.182;6.284;2022-11-15T11:43:51;11.80;99.90
52159;DHT22;38145;53.182;6.284;2022-11-15T11:48:51;11.60;99.90
52159;DHT22;38145;53.182;6.284;2022-11-15T11:51:28;11.80;99.90
52159;DHT22;38145;53.182;6.284;2022-11-15T11:54:00;11.60;99.90
52159;DHT22;38145;53.182;6.284;2022-11-15T11:56:31;11.70;99.90
52159;DHT22;38145;53.182;6.284;2022-11-15T11:59:00;11.80;99.90
52159;DHT22;38145;53.182;6.284;2022-11-15T12:01:31;11.80;99.90
52159;DHT22;38145;53.182;6.284;2022-11-15T12:09:12;11.80;99.90
52159;DHT22;38145;53.182;6.284;2022-11-15T12:11:49;11.90;99.90
52159;DHT22;38145;53.182;6.284;2022-11-15T12:16:46;11.90;1.00
52159;DHT22;38145;53.182;6.284;2022-11-15T12:19:12;12.00;1.00
52159;DHT22;38145;53.182;6.284;2022-11-15T12:24:12;11.90;1.00
52159;DHT22;38145;53.182;6.284;2022-11-15T12:26:42;12.00;1.00
52159;DHT22;38145;53.182;6.284;2022-11-15T12:29:20;11.90;99.90
52159;DHT22;38145;53.182;6.284;2022-11-15T12:31:48;12.00;99.90
52159;DHT22;38145;53.182;6.284;2022-11-15T12:36:47;12.10;99.90
52159;DHT22;38145;53.182;6.284;2022-11-15T12:39:14;12.20;99.90
52159;DHT22;38145;53.182;6.284;2022-11-15T12:41:40;12.20;99.90
52159;DHT22;38145;53.182;6.284;2022-11-15T12:47:00;12.20;99.90
52159;DHT22;38145;53.182;6.284;2022-11-15T13:02:19;12.20;99.90
52159;DHT22;38145;53.182;6.284;2022-11-15T13:04:47;12.30;99.90
52159;DHT22;38145;53.182;6.284;2022-11-15T13:09:58;12.30;99.90
52159;DHT22;38145;53.182;6.284;2022-11-15T13:14:52;12.20;99.90
52159;DHT22;38145;53.182;6.284;2022-11-15T13:19:47;12.20;99.90
52159;DHT22;38145;53.182;6.284;2022-11-15T13:22:13;12.20;99.90
52159;DHT22;38145;53.182;6.284;2022-11-15T13:25:00;12.10;99.90
52159;DHT22;38145;53.182;6.284;2022-11-15T13:27:26;12.20;99.90
52159;DHT22;38145;53.182;6.284;2022-11-15T13:29:53;12.20;99.90
52159;DHT22;38145;53.182;6.284;2022-11-15T13:32:19;12.10;99.90
52159;DHT22;38145;53.182;6.284;2022-11-15T13:34:46;12.10;1.00
52159;DHT22;38145;53.182;6.284;2022-11-15T13:39:45;12.00;17.40
52159;DHT22;38145;53.182;6.284;2022-11-15T13:42:15;12.00;1.00
52159;DHT22;38145;53.182;6.284;2022-11-15T13:44:41;12.00;1.00
52159;DHT22;38145;53.182;6.284;2022-11-15T13:47:20;12.10;8.10
52159;DHT22;38145;53.182;6.284;2022-11-15T13:49:46;12.10;1.00
52159;DHT22;38145;53.182;6.284;2022-11-15T13:52:14;12.00;1.00
52159;DHT22;38145;53.182;6.284;2022-11-15T13:54:43;12.10;1.00
52159;DHT22;38145;53.182;6.284;2022-11-15T13:59:37;12.10;1.00
52159;DHT22;38145;53.182;6.284;2022-11-15T14:02:12;12.10;1.00
52159;DHT22;38145;53.182;6.284;2022-11-15T14:04:45;12.00;1.00
52159;DHT22;38145;53.182;6.284;2022-11-15T14:07:15;12.00;1.00
52159;DHT22;38145;53.182;6.284;2022-11-15T14:09:42;12.00;1.00
52159;DHT22;38145;53.182;6.284;2022-11-15T14:12:22;12.00;1.00
52159;DHT22;38145;53.182;6.284;2022-11-15T14:14:49;12.00;1.00
52159;DHT22;38145;53.182;6.284;2022-11-15T14:17:19;12.00;1.00
52159;DHT22;38145;53.182;6.284;2022-11-15T14:19:45;11.90;1.00
52159;DHT22;38145;53.182;6.284;2022-11-15T14:22:17;11.90;1.00
52159;DHT22;38145;53.182;6.284;2022-11-15T14:24:44;11.80;2.20
52159;DHT22;38145;53.182;6.284;2022-11-15T14:27:16;11.80;2.30
52159;DHT22;38145;53.182;6.284;2022-11-15T14:29:42;11.80;1.00
52159;DHT22;38145;53.182;6.284;2022-11-15T14:32:15;11.70;99.90
52159;DHT22;38145;53.182;6.284;2022-11-15T14:34:44;11.70;99.90
52159;DHT22;38145;53.182;6.284;2022-11-15T14:37:16;11.70;99.90
52159;DHT22;38145;53.182;6.284;2022-11-15T14:39:44;11.60;99.90
52159;DHT22;38145;53.182;6.284;2022-11-15T14:42:10;11.50;99.90
52159;DHT22;38145;53.182;6.284;2022-11-15T14:44:36;11.50;99.90
52159;DHT22;38145;53.182;6.284;2022-11-15T14:47:02;11.50;99.90
52159;DHT22;38145;53.182;6.284;2022-11-15T14:49:28;11.40;99.90
52159;DHT22;38145;53.182;6.284;2022-11-15T14:51:54;11.40;99.90
52159;DHT22;38145;53.182;6.284;2022-11-15T14:54:20;11.40;99.90
52159;DHT22;38145;53.182;6.284;2022-11-15T14:56:46;11.30;99.90
52159;DHT22;38145;53.182;6.284;2022-11-15T14:59:12;11.30;99.90
52159;DHT22;38145;53.182;6.284;2022-11-15T15:01:38;11.20;99.90
52159;DHT22;38145;53.182;6.284;2022-11-15T15:04:04;11.20;1.00
52159;DHT22;38145;53.182;6.284;2022-11-15T15:06:30;11.20;1.00
52159;DHT22;38145;53.182;6.284;2022-11-15T15:08:56;11.10;1.00
52159;DHT22;38145;53.182;6.284;2022-11-15T15:11:29;11.10;1.00
52159;DHT22;38145;53.182;6.284;2022-11-15T15:13:56;11.00;99.90
52159;DHT22;38145;53.182;6.284;2022-11-15T15:16:24;11.00;99.90
52159;DHT22;38145;53.182;6.284;2022-11-15T15:18:50;11.00;99.90
52159;DHT22;38145;53.182;6.284;2022-11-15T15:21:23;11.00;99.90
52159;DHT22;38145;53.182;6.284;2022-11-15T15:23:49;11.00;99.90
52159;DHT22;38145;53.182;6.284;2022-11-15T15:26:16;10.90;99.90
52159;DHT22;38145;53.182;6.284;2022-11-15T15:28:42;10.90;99.90
52159;DHT22;38145;53.182;6.284;2022-11-15T15:31:09;10.80;99.90
52159;DHT22;38145;53.182;6.284;2022-11-15T15:33:35;10.80;99.90
52159;DHT22;38145;53.182;6.284;2022-11-15T15:36:01;10.80;99.90
52159;DHT22;38145;53.182;6.284;2022-11-15T15:38:28;10.80;99.90
52159;DHT22;38145;53.182;6.284;2022-11-15T15:40:54;10.70;99.90
52159;DHT22;38145;53.182;6.284;2022-11-15T15:43:21;10.70;99.90
52159;DHT22;38145;53.182;6.284;2022-11-15T15:45:47;10.70;99.90
52159;DHT22;38145;53.182;6.284;2022-11-15T15:48:14;10.70;99.90
52159;DHT22;38145;53.182;6.284;2022-11-15T15:50:41;10.70;99.90
52159;DHT22;38145;53.182;6.284;2022-11-15T15:53:09;10.60;99.90
52159;DHT22;38145;53.182;6.284;2022-11-15T15:55:36;10.60;99.90
52159;DHT22;38145;53.182;6.284;2022-11-15T15:58:03;10.60;99.90
52159;DHT22;38145;53.182;6.284;2022-11-15T16:00:29;10.60;99.90
52159;DHT22;38145;53.182;6.284;2022-11-15T16:02:58;10.60;99.90
52159;DHT22;38145;53.182;6.284;2022-11-15T16:05:25;10.50;99.90
52159;DHT22;38145;53.182;6.284;2022-11-15T16:07:51;10.50;99.90
52159;DHT22;38145;53.182;6.284;2022-11-15T16:10:25;10.50;99.90
52159;DHT22;38145;53.182;6.284;2022-11-15T16:12:52;10.50;99.90
52159;DHT22;38145;53.182;6.284;2022-11-15T16:15:19;10.40;99.90
52159;DHT22;38145;53.182;6.284;2022-11-15T16:17:48;10.40;99.90
52159;DHT22;38145;53.182;6.284;2022-11-15T16:20:22;10.40;99.90
52159;DHT22;38145;53.182;6.284;2022-11-15T16:22:49;10.30;99.90
52159;DHT22;38145;53.182;6.284;2022-11-15T16:25:15;10.30;99.90
52159;DHT22;38145;53.182;6.284;2022-11-15T16:27:45;10.30;1.00
52159;DHT22;38145;53.182;6.284;2022-11-15T16:30:13;10.20;1.00
52159;DHT22;38145;53.182;6.284;2022-11-15T16:32:39;10.30;1.00
52159;DHT22;38145;53.182;6.284;2022-11-15T16:35:06;10.20;1.00
52159;DHT22;38145;53.182;6.284;2022-11-15T16:37:33;10.20;1.00
52159;DHT22;38145;53.182;6.284;2022-11-15T16:39:59;10.20;1.00
52159;DHT22;38145;53.182;6.284;2022-11-15T16:42:25;10.20;1.00
52159;DHT22;38145;53.182;6.284;2022-11-15T16:44:51;10.30;1.00
52159;DHT22;38145;53.182;6.284;2022-11-15T16:47:17;10.30;1.00
52159;DHT22;38145;53.182;6.284;2022-11-15T16:49:44;10.30;1.00
52159;DHT22;38145;53.182;6.284;2022-11-15T16:52:11;10.30;15.30
52159;DHT22;38145;53.182;6.284;2022-11-15T16:54:37;10.30;1.00
52159;DHT22;38145;53.182;6.284;2022-11-15T16:57:03;10.30;20.30
52159;DHT22;38145;53.182;6.284;2022-11-15T16:59:29;10.40;15.30
52159;DHT22;38145;53.182;6.284;2022-11-15T17:01:58;10.40;1.00
52159;DHT22;38145;53.182;6.284;2022-11-15T17:04:23;10.40;1.00